sensor_id;sensor_type;location;lat;lon;timestamp;P1;durP1;ratioP1;P2;durP2;ratioP2
41685;SDS011;27370;42.764;23.432;2024-03-07T00:00:07;37.88;;;23.08;;
41685;SDS011;27370;42.764;23.432;2024-03-07T00:02:46;40.53;;;20.73;;
41685;SDS011;27370;42.764;23.432;2024-03-07T00:05:14;38.25;;;21.35;;
41685;SDS011;27370;42.764;23.432;2024-03-07T00:07:41;41.40;;;22.20;;
41685;SDS011;27370;42.764;23.432;2024-03-07T00:10:06;35.00;;;21.38;;
41685;SDS011;27370;42.764;23.432;2024-03-07T00:12:33;34.15;;;20.17;;
41685;SDS011;27370;42.764;23.432;2024-03-07T00:15:00;34.60;;;21.70;;
41685;SDS011;27370;42.764;23.432;2024-03-07T00:17:29;46.70;;;22.25;;
41685;SDS011;27370;42.764;23.432;2024-03-07T00:19:54;38.95;;;21.48;;
41685;SDS011;27370;42.764;23.432;2024-03-07T00:22:20;41.88;;;21.55;;
41685;SDS011;27370;42.764;23.432;2024-03-07T00:24:45;42.92;;;22.02;;
41685;SDS011;27370;42.764;23.432;2024-03-07T00:27:12;41.30;;;21.05;;
41685;SDS011;27370;42.764;23.432;2024-03-07T00:29:40;39.88;;;21.08;;
41685;SDS011;27370;42.764;23.432;2024-03-07T00:32:05;37.72;;;20.75;;
41685;SDS011;27370;42.764;23.432;2024-03-07T00:34:32;36.97;;;21.75;;
41685;SDS011;27370;42.764;23.432;2024-03-07T00:36:58;40.42;;;19.75;;
41685;SDS011;27370;42.764;23.432;2024-03-07T00:39:25;38.55;;;20.58;;
41685;SDS011;27370;42.764;23.432;2024-03-07T00:41:51;44.00;;;22.48;;
41685;SDS011;27370;42.764;23.432;2024-03-07T00:44:16;35.92;;;18.60;;
41685;SDS011;27370;42.764;23.432;2024-03-07T00:46:42;35.92;;;22.02;;
41685;SDS011;27370;42.764;23.432;2024-03-07T00:49:07;40.15;;;23.05;;
41685;SDS011;27370;42.764;23.432;2024-03-07T00:51:33;45.30;;;21.40;;
41685;SDS011;27370;42.764;23.432;2024-03-07T00:53:58;43.58;;;22.77;;
41685;SDS011;27370;42.764;23.432;2024-03-07T00:56:24;39.10;;;21.20;;
41685;SDS011;27370;42.764;23.432;2024-03-07T00:58:50;43.13;;;21.58;;
41685;SDS011;27370;42.764;23.432;2024-03-07T01:01:16;43.28;;;21.92;;
41685;SDS011;27370;42.764;23.432;2024-03-07T01:03:42;40.25;;;20.45;;
41685;SDS011;27370;42.764;23.432;2024-03-07T01:06:08;39.67;;;21.60;;
41685;SDS011;27370;42.764;23.432;2024-03-07T01:08:35;48.33;;;24.23;;
41685;SDS011;27370;42.764;23.432;2024-03-07T01:11:02;38.75;;;20.73;;
41685;SDS011;27370;42.764;23.432;2024-03-07T01:13:40;39.22;;;20.65;;
41685;SDS011;27370;42.764;23.432;2024-03-07T01:16:05;39.70;;;20.13;;
41685;SDS011;27370;42.764;23.432;2024-03-07T01:18:31;32.90;;;17.67;;
41685;SDS011;27370;42.764;23.432;2024-03-07T01:20:58;34.47;;;18.30;;
41685;SDS011;27370;42.764;23.432;2024-03-07T01:23:28;37.03;;;19.02;;
41685;SDS011;27370;42.764;23.432;2024-03-07T01:25:58;29.23;;;16.55;;
41685;SDS011;27370;42.764;23.432;2024-03-07T01:28:24;35.03;;;16.95;;
41685;SDS011;27370;42.764;23.432;2024-03-07T01:30:50;30.88;;;17.35;;
41685;SDS011;27370;42.764;23.432;2024-03-07T01:33:16;28.92;;;16.88;;
41685;SDS011;27370;42.764;23.432;2024-03-07T01:35:41;28.70;;;15.45;;
41685;SDS011;27370;42.764;23.432;2024-03-07T01:38:07;31.02;;;17.10;;
41685;SDS011;27370;42.764;23.432;2024-03-07T01:40:34;36.38;;;16.48;;
41685;SDS011;27370;42.764;23.432;2024-03-07T01:43:01;34.00;;;17.23;;
41685;SDS011;27370;42.764;23.432;2024-03-07T01:45:27;29.65;;;16.75;;
41685;SDS011;27370;42.764;23.432;2024-03-07T01:47:52;38.72;;;19.17;;
41685;SDS011;27370;42.764;23.432;2024-03-07T01:50:18;36.08;;;18.40;;
41685;SDS011;27370;42.764;23.432;2024-03-07T01:52:43;27.75;;;15.43;;
41685;SDS011;27370;42.764;23.432;2024-03-07T01:55:09;29.95;;;17.15;;
41685;SDS011;27370;42.764;23.432;2024-03-07T01:57:40;30.88;;;15.68;;
41685;SDS011;27370;42.764;23.432;2024-03-07T02:00:06;33.17;;;15.75;;
41685;SDS011;27370;42.764;23.432;2024-03-07T02:02:33;43.13;;;17.67;;
41685;SDS011;27370;42.764;23.432;2024-03-07T02:04:59;30.13;;;17.58;;
41685;SDS011;27370;42.764;23.432;2024-03-07T02:07:24;40.88;;;19.90;;
41685;SDS011;27370;42.764;23.432;2024-03-07T02:09:58;40.33;;;19.13;;
41685;SDS011;27370;42.764;23.432;2024-03-07T02:12:28;35.33;;;18.85;;
41685;SDS011;27370;42.764;23.432;2024-03-07T02:14:55;34.55;;;19.90;;
41685;SDS011;27370;42.764;23.432;2024-03-07T02:17:22;34.33;;;17.52;;
41685;SDS011;27370;42.764;23.432;2024-03-07T02:19:49;38.13;;;18.60;;
41685;SDS011;27370;42.764;23.432;2024-03-07T02:22:14;39.70;;;19.70;;
41685;SDS011;27370;42.764;23.432;2024-03-07T02:24:39;36.40;;;19.15;;
41685;SDS011;27370;42.764;23.432;2024-03-07T02:27:05;30.95;;;17.70;;
41685;SDS011;27370;42.764;23.432;2024-03-07T02:29:30;37.17;;;20.40;;
41685;SDS011;27370;42.764;23.432;2024-03-07T02:31:56;32.35;;;16.73;;
41685;SDS011;27370;42.764;23.432;2024-03-07T02:34:22;36.60;;;18.73;;
41685;SDS011;27370;42.764;23.432;2024-03-07T02:36:47;36.58;;;18.55;;
41685;SDS011;27370;42.764;23.432;2024-03-07T02:39:13;38.33;;;19.75;;
41685;SDS011;27370;42.764;23.432;2024-03-07T02:41:38;30.05;;;16.67;;
41685;SDS011;27370;42.764;23.432;2024-03-07T02:44:03;33.28;;;17.55;;
41685;SDS011;27370;42.764;23.432;2024-03-07T02:46:29;31.15;;;17.60;;
41685;SDS011;27370;42.764;23.432;2024-03-07T02:48:54;36.90;;;19.65;;
41685;SDS011;27370;42.764;23.432;2024-03-07T02:51:20;31.05;;;15.85;;
41685;SDS011;27370;42.764;23.432;2024-03-07T02:53:45;35.53;;;18.30;;
41685;SDS011;27370;42.764;23.432;2024-03-07T02:56:11;27.58;;;15.93;;
41685;SDS011;27370;42.764;23.432;2024-03-07T02:58:37;31.88;;;15.35;;
41685;SDS011;27370;42.764;23.432;2024-03-07T03:01:02;30.45;;;15.70;;
41685;SDS011;27370;42.764;23.432;2024-03-07T03:03:28;26.70;;;13.93;;
41685;SDS011;27370;42.764;23.432;2024-03-07T03:05:58;23.67;;;12.38;;
41685;SDS011;27370;42.764;23.432;2024-03-07T03:08:24;17.85;;;10.88;;
41685;SDS011;27370;42.764;23.432;2024-03-07T03:10:50;19.10;;;11.15;;
41685;SDS011;27370;42.764;23.432;2024-03-07T03:13:18;17.13;;;8.77;;
41685;SDS011;27370;42.764;23.432;2024-03-07T03:15:44;10.57;;;6.72;;
41685;SDS011;27370;42.764;23.432;2024-03-07T03:18:09;10.30;;;6.88;;
41685;SDS011;27370;42.764;23.432;2024-03-07T03:20:38;12.68;;;7.13;;
41685;SDS011;27370;42.764;23.432;2024-03-07T03:23:06;12.10;;;6.70;;
41685;SDS011;27370;42.764;23.432;2024-03-07T03:25:36;10.70;;;6.72;;
41685;SDS011;27370;42.764;23.432;2024-03-07T03:28:05;7.10;;;4.30;;
41685;SDS011;27370;42.764;23.432;2024-03-07T03:30:31;8.43;;;5.20;;
41685;SDS011;27370;42.764;23.432;2024-03-07T03:32:58;7.90;;;4.85;;
41685;SDS011;27370;42.764;23.432;2024-03-07T03:35:23;4.80;;;2.83;;
41685;SDS011;27370;42.764;23.432;2024-03-07T03:37:49;3.63;;;2.35;;
41685;SDS011;27370;42.764;23.432;2024-03-07T03:40:15;4.63;;;3.03;;
41685;SDS011;27370;42.764;23.432;2024-03-07T03:42:40;3.35;;;2.33;;
41685;SDS011;27370;42.764;23.432;2024-03-07T03:45:07;5.55;;;2.88;;
41685;SDS011;27370;42.764;23.432;2024-03-07T03:47:37;3.90;;;3.10;;
41685;SDS011;27370;42.764;23.432;2024-03-07T03:52:29;5.55;;;3.95;;
41685;SDS011;27370;42.764;23.432;2024-03-07T03:54:56;6.05;;;3.70;;
41685;SDS011;27370;42.764;23.432;2024-03-07T03:57:22;6.00;;;2.88;;
41685;SDS011;27370;42.764;23.432;2024-03-07T03:59:47;5.50;;;3.42;;
41685;SDS011;27370;42.764;23.432;2024-03-07T04:02:13;5.10;;;2.60;;
41685;SDS011;27370;42.764;23.432;2024-03-07T04:04:39;7.47;;;3.40;;
41685;SDS011;27370;42.764;23.432;2024-03-07T04:07:05;5.35;;;3.72;;
41685;SDS011;27370;42.764;23.432;2024-03-07T04:09:30;5.97;;;3.13;;
41685;SDS011;27370;42.764;23.432;2024-03-07T04:11:56;4.18;;;2.75;;
41685;SDS011;27370;42.764;23.432;2024-03-07T04:14:22;6.57;;;3.80;;
41685;SDS011;27370;42.764;23.432;2024-03-07T04:16:48;8.88;;;5.15;;
41685;SDS011;27370;42.764;23.432;2024-03-07T04:19:14;6.72;;;3.88;;
41685;SDS011;27370;42.764;23.432;2024-03-07T04:21:39;8.10;;;5.30;;
41685;SDS011;27370;42.764;23.432;2024-03-07T04:24:05;9.90;;;6.57;;
41685;SDS011;27370;42.764;23.432;2024-03-07T04:26:30;12.15;;;6.30;;
41685;SDS011;27370;42.764;23.432;2024-03-07T04:28:55;11.70;;;7.68;;
41685;SDS011;27370;42.764;23.432;2024-03-07T04:31:23;11.20;;;5.65;;
41685;SDS011;27370;42.764;23.432;2024-03-07T04:33:48;12.55;;;7.03;;
41685;SDS011;27370;42.764;23.432;2024-03-07T04:36:16;11.30;;;6.97;;
41685;SDS011;27370;42.764;23.432;2024-03-07T04:38:42;13.95;;;8.68;;
41685;SDS011;27370;42.764;23.432;2024-03-07T04:41:13;9.40;;;6.35;;
41685;SDS011;27370;42.764;23.432;2024-03-07T04:43:40;10.13;;;6.63;;
41685;SDS011;27370;42.764;23.432;2024-03-07T04:46:07;12.15;;;7.57;;
41685;SDS011;27370;42.764;23.432;2024-03-07T04:48:32;9.48;;;5.50;;
41685;SDS011;27370;42.764;23.432;2024-03-07T04:50:58;10.30;;;6.28;;
41685;SDS011;27370;42.764;23.432;2024-03-07T04:53:23;9.27;;;6.22;;
41685;SDS011;27370;42.764;23.432;2024-03-07T04:55:49;9.35;;;5.75;;
41685;SDS011;27370;42.764;23.432;2024-03-07T04:58:16;10.07;;;6.07;;
41685;SDS011;27370;42.764;23.432;2024-03-07T05:00:42;7.63;;;6.65;;
41685;SDS011;27370;42.764;23.432;2024-03-07T05:03:07;7.18;;;4.97;;
41685;SDS011;27370;42.764;23.432;2024-03-07T05:05:33;5.05;;;3.75;;
41685;SDS011;27370;42.764;23.432;2024-03-07T05:07:58;4.57;;;3.85;;
41685;SDS011;27370;42.764;23.432;2024-03-07T05:10:24;4.15;;;2.60;;
41685;SDS011;27370;42.764;23.432;2024-03-07T05:12:50;4.13;;;2.20;;
41685;SDS011;27370;42.764;23.432;2024-03-07T05:15:15;7.40;;;4.05;;
41685;SDS011;27370;42.764;23.432;2024-03-07T05:17:42;6.70;;;4.07;;
41685;SDS011;27370;42.764;23.432;2024-03-07T05:20:08;17.25;;;8.70;;
41685;SDS011;27370;42.764;23.432;2024-03-07T05:22:40;12.60;;;7.00;;
41685;SDS011;27370;42.764;23.432;2024-03-07T05:25:09;15.68;;;6.93;;
41685;SDS011;27370;42.764;23.432;2024-03-07T05:27:35;15.18;;;8.10;;
41685;SDS011;27370;42.764;23.432;2024-03-07T05:30:02;39.78;;;14.20;;
41685;SDS011;27370;42.764;23.432;2024-03-07T05:32:31;38.53;;;17.60;;
41685;SDS011;27370;42.764;23.432;2024-03-07T05:34:59;20.70;;;9.75;;
41685;SDS011;27370;42.764;23.432;2024-03-07T05:37:24;11.88;;;5.03;;
41685;SDS011;27370;42.764;23.432;2024-03-07T05:39:50;7.72;;;3.53;;
41685;SDS011;27370;42.764;23.432;2024-03-07T05:42:16;3.03;;;1.77;;
41685;SDS011;27370;42.764;23.432;2024-03-07T05:44:42;31.38;;;14.10;;
41685;SDS011;27370;42.764;23.432;2024-03-07T05:47:08;17.30;;;7.70;;
41685;SDS011;27370;42.764;23.432;2024-03-07T05:49:34;8.05;;;3.88;;
41685;SDS011;27370;42.764;23.432;2024-03-07T05:52:02;6.18;;;2.70;;
41685;SDS011;27370;42.764;23.432;2024-03-07T05:54:28;3.83;;;2.45;;
41685;SDS011;27370;42.764;23.432;2024-03-07T05:56:54;5.43;;;3.50;;
41685;SDS011;27370;42.764;23.432;2024-03-07T05:59:20;6.43;;;2.65;;
41685;SDS011;27370;42.764;23.432;2024-03-07T06:01:46;11.48;;;3.55;;
41685;SDS011;27370;42.764;23.432;2024-03-07T06:04:12;20.45;;;7.35;;
41685;SDS011;27370;42.764;23.432;2024-03-07T06:06:38;5.40;;;2.17;;
41685;SDS011;27370;42.764;23.432;2024-03-07T06:09:13;2.65;;;1.70;;
41685;SDS011;27370;42.764;23.432;2024-03-07T06:11:40;2.25;;;1.30;;
41685;SDS011;27370;42.764;23.432;2024-03-07T06:14:09;4.88;;;1.90;;
41685;SDS011;27370;42.764;23.432;2024-03-07T06:16:38;5.72;;;2.42;;
41685;SDS011;27370;42.764;23.432;2024-03-07T06:19:05;7.32;;;4.00;;
41685;SDS011;27370;42.764;23.432;2024-03-07T06:21:34;5.88;;;3.58;;
41685;SDS011;27370;42.764;23.432;2024-03-07T06:24:06;7.25;;;5.05;;
41685;SDS011;27370;42.764;23.432;2024-03-07T06:26:34;3.95;;;2.70;;
41685;SDS011;27370;42.764;23.432;2024-03-07T06:29:06;3.95;;;2.47;;
41685;SDS011;27370;42.764;23.432;2024-03-07T06:31:33;4.47;;;2.53;;
41685;SDS011;27370;42.764;23.432;2024-03-07T06:33:59;3.42;;;2.10;;
41685;SDS011;27370;42.764;23.432;2024-03-07T06:36:25;2.67;;;1.92;;
41685;SDS011;27370;42.764;23.432;2024-03-07T06:38:51;2.85;;;2.17;;
41685;SDS011;27370;42.764;23.432;2024-03-07T06:41:16;6.43;;;3.72;;
41685;SDS011;27370;42.764;23.432;2024-03-07T06:43:43;9.18;;;5.47;;
41685;SDS011;27370;42.764;23.432;2024-03-07T06:46:10;4.65;;;2.80;;
41685;SDS011;27370;42.764;23.432;2024-03-07T06:48:37;6.57;;;3.25;;
41685;SDS011;27370;42.764;23.432;2024-03-07T06:51:06;7.13;;;3.95;;
41685;SDS011;27370;42.764;23.432;2024-03-07T06:53:32;8.75;;;4.82;;
41685;SDS011;27370;42.764;23.432;2024-03-07T06:55:58;15.40;;;7.30;;
41685;SDS011;27370;42.764;23.432;2024-03-07T06:58:24;4.65;;;3.08;;
41685;SDS011;27370;42.764;23.432;2024-03-07T07:00:49;4.15;;;2.47;;
41685;SDS011;27370;42.764;23.432;2024-03-07T07:03:18;4.68;;;2.58;;
41685;SDS011;27370;42.764;23.432;2024-03-07T07:05:45;4.55;;;2.58;;
41685;SDS011;27370;42.764;23.432;2024-03-07T07:08:11;4.57;;;3.35;;
41685;SDS011;27370;42.764;23.432;2024-03-07T07:10:38;5.47;;;3.42;;
41685;SDS011;27370;42.764;23.432;2024-03-07T07:13:09;10.50;;;4.53;;
41685;SDS011;27370;42.764;23.432;2024-03-07T07:15:35;3.53;;;2.85;;
41685;SDS011;27370;42.764;23.432;2024-03-07T07:18:02;6.45;;;3.28;;
41685;SDS011;27370;42.764;23.432;2024-03-07T07:20:28;4.13;;;2.42;;
41685;SDS011;27370;42.764;23.432;2024-03-07T07:22:53;3.10;;;1.80;;
41685;SDS011;27370;42.764;23.432;2024-03-07T07:25:19;2.00;;;1.50;;
41685;SDS011;27370;42.764;23.432;2024-03-07T07:27:47;3.28;;;2.13;;
41685;SDS011;27370;42.764;23.432;2024-03-07T07:30:17;3.95;;;2.63;;
41685;SDS011;27370;42.764;23.432;2024-03-07T07:32:44;2.58;;;1.83;;
41685;SDS011;27370;42.764;23.432;2024-03-07T07:35:11;3.58;;;1.95;;
41685;SDS011;27370;42.764;23.432;2024-03-07T07:37:40;2.90;;;2.50;;
41685;SDS011;27370;42.764;23.432;2024-03-07T07:40:07;3.42;;;2.25;;
41685;SDS011;27370;42.764;23.432;2024-03-07T07:42:37;3.85;;;2.70;;
41685;SDS011;27370;42.764;23.432;2024-03-07T07:45:07;3.17;;;2.75;;
41685;SDS011;27370;42.764;23.432;2024-03-07T07:47:37;3.13;;;2.42;;
41685;SDS011;27370;42.764;23.432;2024-03-07T07:50:10;2.25;;;1.73;;
41685;SDS011;27370;42.764;23.432;2024-03-07T07:52:40;2.35;;;1.67;;
41685;SDS011;27370;42.764;23.432;2024-03-07T07:55:18;2.55;;;1.50;;
41685;SDS011;27370;42.764;23.432;2024-03-07T07:57:45;2.20;;;1.23;;
41685;SDS011;27370;42.764;23.432;2024-03-07T08:02:50;2.85;;;1.98;;
41685;SDS011;27370;42.764;23.432;2024-03-07T08:05:37;2.33;;;1.48;;
41685;SDS011;27370;42.764;23.432;2024-03-07T08:08:03;3.72;;;1.80;;
41685;SDS011;27370;42.764;23.432;2024-03-07T08:10:31;1.63;;;1.20;;
41685;SDS011;27370;42.764;23.432;2024-03-07T08:12:58;3.97;;;1.45;;
41685;SDS011;27370;42.764;23.432;2024-03-07T08:15:27;5.15;;;2.03;;
41685;SDS011;27370;42.764;23.432;2024-03-07T08:17:54;3.00;;;2.35;;
41685;SDS011;27370;42.764;23.432;2024-03-07T08:20:20;2.45;;;1.50;;
41685;SDS011;27370;42.764;23.432;2024-03-07T08:22:47;1.98;;;1.27;;
41685;SDS011;27370;42.764;23.432;2024-03-07T08:25:16;3.30;;;2.05;;
41685;SDS011;27370;42.764;23.432;2024-03-07T08:27:44;3.13;;;1.83;;
41685;SDS011;27370;42.764;23.432;2024-03-07T08:30:11;1.77;;;1.30;;
41685;SDS011;27370;42.764;23.432;2024-03-07T08:32:40;1.73;;;1.13;;
41685;SDS011;27370;42.764;23.432;2024-03-07T08:35:06;20.13;;;8.35;;
41685;SDS011;27370;42.764;23.432;2024-03-07T08:37:38;2.53;;;1.50;;
41685;SDS011;27370;42.764;23.432;2024-03-07T08:40:04;2.92;;;1.77;;
41685;SDS011;27370;42.764;23.432;2024-03-07T08:42:33;5.55;;;2.90;;
41685;SDS011;27370;42.764;23.432;2024-03-07T08:45:02;4.78;;;1.85;;
41685;SDS011;27370;42.764;23.432;2024-03-07T08:47:32;3.30;;;2.15;;
41685;SDS011;27370;42.764;23.432;2024-03-07T08:49:58;1.13;;;1.02;;
41685;SDS011;27370;42.764;23.432;2024-03-07T08:52:24;1.65;;;1.23;;
41685;SDS011;27370;42.764;23.432;2024-03-07T08:54:50;4.65;;;2.33;;
41685;SDS011;27370;42.764;23.432;2024-03-07T08:57:15;6.40;;;4.68;;
41685;SDS011;27370;42.764;23.432;2024-03-07T08:59:44;2.92;;;2.28;;
41685;SDS011;27370;42.764;23.432;2024-03-07T09:02:10;2.53;;;2.00;;
41685;SDS011;27370;42.764;23.432;2024-03-07T09:04:39;2.15;;;1.60;;
41685;SDS011;27370;42.764;23.432;2024-03-07T09:07:05;3.38;;;2.22;;
41685;SDS011;27370;42.764;23.432;2024-03-07T09:09:34;2.35;;;1.98;;
41685;SDS011;27370;42.764;23.432;2024-03-07T09:12:00;4.35;;;2.10;;
41685;SDS011;27370;42.764;23.432;2024-03-07T09:14:29;2.90;;;2.20;;
41685;SDS011;27370;42.764;23.432;2024-03-07T09:16:55;5.38;;;2.22;;
41685;SDS011;27370;42.764;23.432;2024-03-07T09:19:20;2.35;;;2.15;;
41685;SDS011;27370;42.764;23.432;2024-03-07T09:21:50;2.85;;;2.25;;
41685;SDS011;27370;42.764;23.432;2024-03-07T09:24:16;2.47;;;1.75;;
41685;SDS011;27370;42.764;23.432;2024-03-07T09:26:41;4.15;;;2.10;;
41685;SDS011;27370;42.764;23.432;2024-03-07T09:29:07;3.30;;;2.22;;
41685;SDS011;27370;42.764;23.432;2024-03-07T09:31:33;3.25;;;1.98;;
41685;SDS011;27370;42.764;23.432;2024-03-07T09:33:58;3.00;;;2.28;;
41685;SDS011;27370;42.764;23.432;2024-03-07T09:36:24;2.95;;;1.60;;
41685;SDS011;27370;42.764;23.432;2024-03-07T09:38:50;2.15;;;1.55;;
41685;SDS011;27370;42.764;23.432;2024-03-07T09:41:15;2.17;;;1.30;;
41685;SDS011;27370;42.764;23.432;2024-03-07T09:43:44;7.60;;;1.60;;
41685;SDS011;27370;42.764;23.432;2024-03-07T09:46:12;2.75;;;1.23;;
41685;SDS011;27370;42.764;23.432;2024-03-07T09:48:38;3.20;;;2.10;;
41685;SDS011;27370;42.764;23.432;2024-03-07T09:51:04;2.25;;;1.60;;
41685;SDS011;27370;42.764;23.432;2024-03-07T09:53:30;3.90;;;1.73;;
41685;SDS011;27370;42.764;23.432;2024-03-07T09:55:57;1.90;;;1.30;;
41685;SDS011;27370;42.764;23.432;2024-03-07T09:58:23;2.28;;;1.40;;
41685;SDS011;27370;42.764;23.432;2024-03-07T10:00:51;2.45;;;1.60;;
41685;SDS011;27370;42.764;23.432;2024-03-07T10:03:20;2.22;;;1.60;;
41685;SDS011;27370;42.764;23.432;2024-03-07T10:05:53;3.20;;;1.70;;
41685;SDS011;27370;42.764;23.432;2024-03-07T10:08:24;3.10;;;2.00;;
41685;SDS011;27370;42.764;23.432;2024-03-07T10:10:51;2.17;;;1.60;;
41685;SDS011;27370;42.764;23.432;2024-03-07T10:13:20;2.40;;;1.58;;
41685;SDS011;27370;42.764;23.432;2024-03-07T10:15:49;2.65;;;1.75;;
41685;SDS011;27370;42.764;23.432;2024-03-07T10:18:17;2.10;;;1.80;;
41685;SDS011;27370;42.764;23.432;2024-03-07T10:20:47;1.00;;;0.80;;
41685;SDS011;27370;42.764;23.432;2024-03-07T10:23:18;2.22;;;1.83;;
41685;SDS011;27370;42.764;23.432;2024-03-07T10:25:46;3.55;;;2.35;;
41685;SDS011;27370;42.764;23.432;2024-03-07T10:28:12;7.38;;;2.38;;
41685;SDS011;27370;42.764;23.432;2024-03-07T10:30:41;3.08;;;2.38;;
41685;SDS011;27370;42.764;23.432;2024-03-07T10:33:07;3.78;;;2.67;;
41685;SDS011;27370;42.764;23.432;2024-03-07T10:35:36;3.20;;;2.22;;
41685;SDS011;27370;42.764;23.432;2024-03-07T10:38:02;3.90;;;2.47;;
41685;SDS011;27370;42.764;23.432;2024-03-07T10:40:33;3.72;;;2.30;;
41685;SDS011;27370;42.764;23.432;2024-03-07T10:43:03;2.95;;;2.08;;
41685;SDS011;27370;42.764;23.432;2024-03-07T10:45:43;3.70;;;2.15;;
41685;SDS011;27370;42.764;23.432;2024-03-07T10:48:11;3.70;;;2.40;;
41685;SDS011;27370;42.764;23.432;2024-03-07T11:02:21;2.53;;;2.10;;
41685;SDS011;27370;42.764;23.432;2024-03-07T11:04:52;3.63;;;1.83;;
41685;SDS011;27370;42.764;23.432;2024-03-07T11:07:21;17.20;;;5.45;;
41685;SDS011;27370;42.764;23.432;2024-03-07T11:09:51;4.75;;;3.33;;
41685;SDS011;27370;42.764;23.432;2024-03-07T11:12:24;4.05;;;2.55;;
41685;SDS011;27370;42.764;23.432;2024-03-07T11:14:53;2.00;;;1.55;;
41685;SDS011;27370;42.764;23.432;2024-03-07T11:17:20;4.35;;;2.80;;
41685;SDS011;27370;42.764;23.432;2024-03-07T11:19:46;2.63;;;2.22;;
41685;SDS011;27370;42.764;23.432;2024-03-07T11:22:27;4.05;;;2.65;;
41685;SDS011;27370;42.764;23.432;2024-03-07T11:25:00;3.50;;;2.50;;
41685;SDS011;27370;42.764;23.432;2024-03-07T11:27:31;3.90;;;2.60;;
41685;SDS011;27370;42.764;23.432;2024-03-07T11:30:04;3.63;;;1.98;;
41685;SDS011;27370;42.764;23.432;2024-03-07T11:32:34;6.15;;;3.63;;
41685;SDS011;27370;42.764;23.432;2024-03-07T11:35:04;6.65;;;4.43;;
41685;SDS011;27370;42.764;23.432;2024-03-07T11:37:39;5.45;;;3.28;;
41685;SDS011;27370;42.764;23.432;2024-03-07T11:42:53;6.93;;;3.83;;
41685;SDS011;27370;42.764;23.432;2024-03-07T11:45:20;9.25;;;4.07;;
41685;SDS011;27370;42.764;23.432;2024-03-07T11:47:57;3.92;;;1.88;;
41685;SDS011;27370;42.764;23.432;2024-03-07T11:50:32;3.95;;;2.30;;
41685;SDS011;27370;42.764;23.432;2024-03-07T11:53:00;9.68;;;4.15;;
41685;SDS011;27370;42.764;23.432;2024-03-07T11:55:26;9.57;;;3.90;;
41685;SDS011;27370;42.764;23.432;2024-03-07T11:57:55;3.95;;;3.13;;
41685;SDS011;27370;42.764;23.432;2024-03-07T12:00:20;2.88;;;2.08;;
41685;SDS011;27370;42.764;23.432;2024-03-07T12:02:49;4.32;;;2.05;;
41685;SDS011;27370;42.764;23.432;2024-03-07T12:05:14;10.40;;;5.10;;
41685;SDS011;27370;42.764;23.432;2024-03-07T12:07:41;8.52;;;4.68;;
41685;SDS011;27370;42.764;23.432;2024-03-07T12:10:07;14.23;;;4.97;;
41685;SDS011;27370;42.764;23.432;2024-03-07T12:12:32;71.93;;;29.95;;
41685;SDS011;27370;42.764;23.432;2024-03-07T12:14:58;57.30;;;20.58;;
41685;SDS011;27370;42.764;23.432;2024-03-07T12:17:24;47.65;;;17.30;;
41685;SDS011;27370;42.764;23.432;2024-03-07T12:19:50;20.08;;;9.35;;
41685;SDS011;27370;42.764;23.432;2024-03-07T12:22:19;8.73;;;4.72;;
41685;SDS011;27370;42.764;23.432;2024-03-07T12:24:48;169.77;;;58.17;;
41685;SDS011;27370;42.764;23.432;2024-03-07T12:27:27;14.68;;;5.18;;
41685;SDS011;27370;42.764;23.432;2024-03-07T12:29:53;102.70;;;36.83;;
41685;SDS011;27370;42.764;23.432;2024-03-07T12:32:19;28.77;;;12.15;;
41685;SDS011;27370;42.764;23.432;2024-03-07T12:34:44;203.50;;;69.18;;
41685;SDS011;27370;42.764;23.432;2024-03-07T12:37:13;35.78;;;14.32;;
41685;SDS011;27370;42.764;23.432;2024-03-07T12:39:42;45.83;;;17.70;;
41685;SDS011;27370;42.764;23.432;2024-03-07T12:42:11;102.15;;;36.10;;
41685;SDS011;27370;42.764;23.432;2024-03-07T12:44:44;142.77;;;45.17;;
41685;SDS011;27370;42.764;23.432;2024-03-07T12:47:16;93.65;;;32.50;;
41685;SDS011;27370;42.764;23.432;2024-03-07T12:49:43;63.80;;;24.70;;
41685;SDS011;27370;42.764;23.432;2024-03-07T12:52:09;99.97;;;34.10;;
41685;SDS011;27370;42.764;23.432;2024-03-07T12:54:38;19.92;;;9.02;;
41685;SDS011;27370;42.764;23.432;2024-03-07T12:57:09;29.38;;;10.50;;
41685;SDS011;27370;42.764;23.432;2024-03-07T12:59:36;37.58;;;13.07;;
41685;SDS011;27370;42.764;23.432;2024-03-07T13:02:03;118.00;;;36.72;;
41685;SDS011;27370;42.764;23.432;2024-03-07T13:04:31;82.25;;;26.95;;
41685;SDS011;27370;42.764;23.432;2024-03-07T13:06:57;16.65;;;6.95;;
41685;SDS011;27370;42.764;23.432;2024-03-07T13:09:27;10.63;;;5.82;;
41685;SDS011;27370;42.764;23.432;2024-03-07T13:11:53;23.13;;;7.53;;
41685;SDS011;27370;42.764;23.432;2024-03-07T13:14:19;17.42;;;7.45;;
41685;SDS011;27370;42.764;23.432;2024-03-07T13:16:45;105.20;;;37.13;;
41685;SDS011;27370;42.764;23.432;2024-03-07T13:19:10;97.45;;;37.90;;
41685;SDS011;27370;42.764;23.432;2024-03-07T13:21:37;32.75;;;13.38;;
41685;SDS011;27370;42.764;23.432;2024-03-07T13:24:04;66.40;;;23.35;;
41685;SDS011;27370;42.764;23.432;2024-03-07T13:26:30;81.97;;;29.83;;
41685;SDS011;27370;42.764;23.432;2024-03-07T13:28:57;27.23;;;10.00;;
41685;SDS011;27370;42.764;23.432;2024-03-07T13:31:30;81.15;;;29.30;;
41685;SDS011;27370;42.764;23.432;2024-03-07T13:33:57;11.35;;;5.28;;
41685;SDS011;27370;42.764;23.432;2024-03-07T13:36:26;48.85;;;19.05;;
41685;SDS011;27370;42.764;23.432;2024-03-07T13:38:52;17.30;;;5.57;;
41685;SDS011;27370;42.764;23.432;2024-03-07T13:41:21;86.32;;;31.27;;
41685;SDS011;27370;42.764;23.432;2024-03-07T13:43:47;63.78;;;24.45;;
41685;SDS011;27370;42.764;23.432;2024-03-07T13:46:16;105.88;;;37.22;;
41685;SDS011;27370;42.764;23.432;2024-03-07T13:48:43;103.60;;;34.45;;
41685;SDS011;27370;42.764;23.432;2024-03-07T13:51:12;59.60;;;20.42;;
41685;SDS011;27370;42.764;23.432;2024-03-07T13:53:40;5.43;;;2.28;;
41685;SDS011;27370;42.764;23.432;2024-03-07T13:59:42;73.00;;;28.40;;
41685;SDS011;27370;42.764;23.432;2024-03-07T14:02:37;24.90;;;10.95;;
41685;SDS011;27370;42.764;23.432;2024-03-07T14:16:47;13.90;;;6.57;;
41685;SDS011;27370;42.764;23.432;2024-03-07T14:30:53;2.33;;;1.52;;
41685;SDS011;27370;42.764;23.432;2024-03-07T14:33:26;8.20;;;5.72;;
41685;SDS011;27370;42.764;23.432;2024-03-07T14:35:58;12.00;;;5.88;;
41685;SDS011;27370;42.764;23.432;2024-03-07T14:41:20;9.38;;;5.78;;
41685;SDS011;27370;42.764;23.432;2024-03-07T14:43:48;18.15;;;8.80;;
41685;SDS011;27370;42.764;23.432;2024-03-07T14:46:15;24.42;;;10.75;;
41685;SDS011;27370;42.764;23.432;2024-03-07T14:48:41;11.88;;;6.80;;
41685;SDS011;27370;42.764;23.432;2024-03-07T14:51:07;10.40;;;5.72;;
41685;SDS011;27370;42.764;23.432;2024-03-07T14:53:34;11.98;;;6.10;;
41685;SDS011;27370;42.764;23.432;2024-03-07T14:56:00;7.38;;;5.13;;
41685;SDS011;27370;42.764;23.432;2024-03-07T14:58:25;6.25;;;3.58;;
41685;SDS011;27370;42.764;23.432;2024-03-07T15:00:51;10.68;;;5.85;;
41685;SDS011;27370;42.764;23.432;2024-03-07T15:03:19;5.38;;;4.25;;
41685;SDS011;27370;42.764;23.432;2024-03-07T15:05:45;5.75;;;3.40;;
41685;SDS011;27370;42.764;23.432;2024-03-07T15:08:12;3.58;;;2.85;;
41685;SDS011;27370;42.764;23.432;2024-03-07T15:10:38;6.22;;;3.80;;
41685;SDS011;27370;42.764;23.432;2024-03-07T15:13:07;4.13;;;3.08;;